createdAt,value
2019-05-29T00:01:12.187Z,10.00
2019-05-29T00:03:36.217Z,9.90
2019-05-29T00:06:04.638Z,9.90
2019-05-29T00:08:33.612Z,9.90
2019-05-29T00:11:02.332Z,10.00
2019-05-29T00:13:30.754Z,10.10
2019-05-29T00:15:59.177Z,10.10
2019-05-29T00:18:27.604Z,10.10
2019-05-29T00:20:56.434Z,10.20
2019-05-29T00:23:44.282Z,10.20
2019-05-29T00:26:12.703Z,10.20
2019-05-29T00:28:41.623Z,10.30
2019-05-29T00:31:12.194Z,10.30
2019-05-29T00:33:40.758Z,10.40
2019-05-29T00:36:10.273Z,10.30
2019-05-29T00:38:39.386Z,10.30
2019-05-29T00:41:08.805Z,10.30
2019-05-29T00:43:37.304Z,10.30
2019-05-29T00:46:05.741Z,10.30
2019-05-29T00:48:34.753Z,10.30
2019-05-29T00:51:05.006Z,10.30
2019-05-29T00:53:33.437Z,10.30
2019-05-29T00:56:02.113Z,10.40
2019-05-29T00:58:30.545Z,10.30
2019-05-29T01:00:59.135Z,10.30
2019-05-29T01:03:27.573Z,10.30
2019-05-29T01:05:56.277Z,10.30
2019-05-29T01:08:25.563Z,10.30
2019-05-29T01:10:54.046Z,10.30
2019-05-29T01:13:22.646Z,10.30
2019-05-29T01:15:51.369Z,10.40
2019-05-29T01:18:20.624Z,10.40
2019-05-29T01:20:49.392Z,10.40
2019-05-29T01:23:18.349Z,10.40
2019-05-29T01:25:47.310Z,10.40
2019-05-29T01:28:16.812Z,10.40
2019-05-29T01:30:46.096Z,10.40
2019-05-29T01:33:18.565Z,10.40
2019-05-29T01:35:45.145Z,10.30
2019-05-29T01:38:13.570Z,10.30
2019-05-29T01:40:43.696Z,10.30
2019-05-29T01:43:12.105Z,10.20
2019-05-29T01:45:40.533Z,10.20
2019-05-29T01:48:08.950Z,10.10
2019-05-29T01:50:37.383Z,10.10
2019-05-29T01:53:06.508Z,10.00
2019-05-29T01:55:35.462Z,10.00
2019-05-29T01:58:04.138Z,10.10
2019-05-29T02:00:32.565Z,10.10
2019-05-29T02:03:00.993Z,10.20
2019-05-29T02:05:29.952Z,10.20
2019-05-29T02:07:59.106Z,10.30
2019-05-29T02:10:27.671Z,10.40
2019-05-29T02:12:56.153Z,10.40
2019-05-29T02:15:32.152Z,10.50
2019-05-29T02:17:55.187Z,10.50
2019-05-29T02:20:25.189Z,10.50
2019-05-29T02:22:53.841Z,10.40
2019-05-29T02:25:24.251Z,10.50
2019-05-29T02:27:53.158Z,10.50
2019-05-29T02:30:23.561Z,10.50
2019-05-29T02:32:51.982Z,10.50
2019-05-29T02:35:22.376Z,10.40
2019-05-29T02:37:51.459Z,10.40
2019-05-29T02:40:21.335Z,10.30
2019-05-29T02:42:52.002Z,10.30
2019-05-29T02:45:21.604Z,10.30
2019-05-29T02:47:51.068Z,10.20
2019-05-29T02:50:19.963Z,10.30
2019-05-29T02:52:48.486Z,10.20
2019-05-29T02:55:17.336Z,10.20
2019-05-29T02:57:46.276Z,10.10
2019-05-29T03:00:15.995Z,10.10
2019-05-29T03:02:44.412Z,10.10
2019-05-29T03:05:12.911Z,10.00
2019-05-29T03:07:41.800Z,10.00
2019-05-29T03:10:11.059Z,10.00
2019-05-29T03:12:40.823Z,9.90
2019-05-29T03:15:09.745Z,9.90
2019-05-29T03:17:38.161Z,9.80
2019-05-29T03:20:07.587Z,9.80
2019-05-29T03:25:07.201Z,9.70
2019-05-29T03:27:35.966Z,9.60
2019-05-29T03:30:07.068Z,9.60
2019-05-29T03:32:45.626Z,9.50
2019-05-29T03:37:35.582Z,9.40
2019-05-29T03:40:06.453Z,9.40
2019-05-29T03:42:35.193Z,9.40
2019-05-29T03:45:04.307Z,9.30
2019-05-29T03:47:33.169Z,9.30
2019-05-29T03:50:04.639Z,9.30
2019-05-29T03:52:34.709Z,9.30
2019-05-29T03:55:04.867Z,9.40
2019-05-29T03:57:34.355Z,9.30
2019-05-29T04:00:05.769Z,9.40
2019-05-29T04:02:35.663Z,9.40
2019-05-29T04:05:06.820Z,9.40
2019-05-29T04:07:35.697Z,9.40
2019-05-29T04:10:07.818Z,9.30
2019-05-29T04:12:38.032Z,9.40
2019-05-29T04:15:07.459Z,9.40
2019-05-29T04:17:38.049Z,9.50
2019-05-29T04:20:08.344Z,9.50
2019-05-29T04:22:42.933Z,9.60
2019-05-29T04:25:12.381Z,9.60
2019-05-29T04:27:42.709Z,9.70
2019-05-29T04:30:11.977Z,9.80
2019-05-29T04:32:40.406Z,9.80
2019-05-29T04:35:09.368Z,9.80
2019-05-29T04:37:39.900Z,9.90
2019-05-29T04:40:08.970Z,10.00
2019-05-29T04:42:39.663Z,10.00
2019-05-29T04:45:09.571Z,10.00
2019-05-29T04:47:39.569Z,10.00
2019-05-29T04:50:09.531Z,10.10
2019-05-29T04:52:39.855Z,10.10
2019-05-29T04:55:08.341Z,10.00
2019-05-29T04:57:37.210Z,10.00
2019-05-29T05:00:07.221Z,10.10
2019-05-29T05:02:37.163Z,10.20
2019-05-29T05:05:09.751Z,10.10
2019-05-29T05:07:39.639Z,10.20
2019-05-29T05:10:09.190Z,10.20
2019-05-29T05:12:38.153Z,10.20
2019-05-29T05:15:07.971Z,10.30
2019-05-29T05:17:38.019Z,10.30
2019-05-29T05:20:07.308Z,10.30
2019-05-29T05:22:36.391Z,10.50
2019-05-29T05:25:06.568Z,10.50
2019-05-29T05:27:36.333Z,10.50
2019-05-29T05:30:08.880Z,10.60
2019-05-29T05:32:36.930Z,10.70
2019-05-29T05:35:06.934Z,10.70
2019-05-29T05:37:35.380Z,10.60
2019-05-29T05:40:06.413Z,10.60
2019-05-29T05:42:35.033Z,10.50
2019-05-29T05:45:05.034Z,10.50
2019-05-29T05:47:44.849Z,10.50
2019-05-29T05:50:06.810Z,10.50
2019-05-29T05:52:35.394Z,10.60
2019-05-29T05:55:05.918Z,10.60
2019-05-29T05:57:35.585Z,10.70
2019-05-29T06:00:09.023Z,10.70
2019-05-29T06:05:07.904Z,10.80
2019-05-29T06:07:38.130Z,10.90
2019-05-29T06:10:07.863Z,11.00
2019-05-29T06:12:36.864Z,11.00
2019-05-29T06:17:37.114Z,11.20
2019-05-29T06:20:08.473Z,11.20
2019-05-29T06:27:35.181Z,11.20
2019-05-29T06:30:05.715Z,11.20
2019-05-29T06:32:35.340Z,11.20
2019-05-29T06:35:07.886Z,11.40
2019-05-29T06:37:37.537Z,11.50
2019-05-29T06:42:56.213Z,11.60
2019-05-29T06:45:30.662Z,11.60
2019-05-29T06:47:59.154Z,11.60
2019-05-29T06:50:27.655Z,11.70
2019-05-29T06:52:56.132Z,11.70
2019-05-29T06:57:52.994Z,11.50
2019-05-29T07:00:34.859Z,11.50
2019-05-29T07:02:52.462Z,11.40
2019-05-29T07:05:21.162Z,11.40
2019-05-29T07:07:49.601Z,11.40
2019-05-29T07:10:18.527Z,11.40
2019-05-29T07:17:44.472Z,11.20
2019-05-29T07:20:13.328Z,11.30
2019-05-29T07:22:42.994Z,11.30
2019-05-29T07:25:11.780Z,11.40
2019-05-29T07:30:09.857Z,11.50
2019-05-29T07:32:40.458Z,11.50
2019-05-29T07:35:09.021Z,11.50
2019-05-29T07:37:38.016Z,11.40
2019-05-29T07:40:08.107Z,11.50
2019-05-29T07:42:37.028Z,11.40
2019-05-29T07:45:07.797Z,11.40
2019-05-29T07:47:36.357Z,11.30
2019-05-29T07:50:24.121Z,11.40
2019-05-29T07:52:52.583Z,11.40
2019-05-29T07:55:23.612Z,11.50
2019-05-29T07:57:51.138Z,11.40
2019-05-29T08:00:20.010Z,11.50
2019-05-29T08:05:18.083Z,11.60
2019-05-29T08:10:16.846Z,11.80
2019-05-29T08:12:50.487Z,12.10
2019-05-29T08:25:09.229Z,12.60
2019-05-29T08:30:09.608Z,12.50
2019-05-29T08:32:38.034Z,12.30
2019-05-29T08:35:09.623Z,12.30
2019-05-29T08:37:38.029Z,12.30
2019-05-29T08:40:07.798Z,12.40
2019-05-29T08:42:36.288Z,12.50
2019-05-29T08:45:08.589Z,12.50
2019-05-29T08:47:37.010Z,12.50
2019-05-29T08:50:17.987Z,12.60
2019-05-29T08:52:36.668Z,12.60
2019-05-29T08:55:05.950Z,12.60
2019-05-29T08:57:34.374Z,12.60
2019-05-29T09:00:04.000Z,12.60
2019-05-29T09:02:32.664Z,12.60
2019-05-29T09:05:01.215Z,12.50
2019-05-29T09:07:29.687Z,12.60
2019-05-29T09:09:58.126Z,12.70
2019-05-29T09:12:29.824Z,12.80
2019-05-29T09:14:57.670Z,12.80
2019-05-29T09:17:26.321Z,12.80
2019-05-29T09:19:54.875Z,12.80
2019-05-29T09:22:23.309Z,12.80
2019-05-29T09:24:51.791Z,12.90
2019-05-29T09:27:21.212Z,12.80
2019-05-29T09:29:49.930Z,12.80
2019-05-29T09:32:45.530Z,12.80
2019-05-29T09:34:49.315Z,12.90
2019-05-29T09:37:19.046Z,13.00
2019-05-29T09:39:47.565Z,12.90
2019-05-29T09:42:17.377Z,12.90
2019-05-29T09:44:46.160Z,12.90
2019-05-29T09:47:15.544Z,13.00
2019-05-29T09:50:07.150Z,13.00
2019-05-29T09:52:35.820Z,13.10
2019-05-29T09:55:06.038Z,13.00
2019-05-29T09:57:34.461Z,12.90
2019-05-29T10:00:04.240Z,12.90
2019-05-29T10:02:33.003Z,13.10
2019-05-29T10:05:02.946Z,13.30
2019-05-29T10:07:31.664Z,13.40
2019-05-29T10:10:01.124Z,13.40
2019-05-29T10:12:30.247Z,13.30
2019-05-29T10:14:59.618Z,13.30
2019-05-29T10:17:28.814Z,13.40
2019-05-29T10:19:58.989Z,13.40
2019-05-29T10:22:27.690Z,13.30
2019-05-29T10:24:56.745Z,13.30
2019-05-29T10:27:27.429Z,13.30
2019-05-29T10:29:55.929Z,13.20
2019-05-29T10:32:24.920Z,13.20
2019-05-29T10:35:12.637Z,13.10
2019-05-29T10:37:42.577Z,13.20
2019-05-29T10:40:11.483Z,13.20
2019-05-29T10:42:40.253Z,13.40
2019-05-29T10:45:09.518Z,13.50
2019-05-29T10:47:38.081Z,13.70
2019-05-29T10:50:08.614Z,13.80
2019-05-29T10:52:37.061Z,13.90
2019-05-29T10:55:07.222Z,13.90
2019-05-29T10:57:35.969Z,14.00
2019-05-29T11:00:07.465Z,13.90
2019-05-29T11:02:36.132Z,13.90
2019-05-29T11:05:05.742Z,13.90
2019-05-29T11:07:34.506Z,13.90
2019-05-29T11:10:03.351Z,13.80
2019-05-29T11:12:32.018Z,13.80
2019-05-29T11:15:00.442Z,13.80
2019-05-29T11:17:28.874Z,13.80
2019-05-29T11:19:58.208Z,13.70
2019-05-29T11:22:27.392Z,13.70
2019-05-29T11:24:56.605Z,13.70
2019-05-29T11:27:26.110Z,13.70
2019-05-29T11:29:55.269Z,13.70
2019-05-29T11:32:24.126Z,13.70
2019-05-29T11:34:53.868Z,13.70
2019-05-29T11:37:22.841Z,13.70
2019-05-29T11:39:52.449Z,13.40
2019-05-29T11:42:27.151Z,13.30
2019-05-29T11:44:53.293Z,13.30
2019-05-29T11:47:21.819Z,13.40
2019-05-29T11:49:50.979Z,13.40
2019-05-29T11:52:24.800Z,13.30
2019-05-29T11:57:19.953Z,13.60
2019-05-29T11:59:48.465Z,13.70
2019-05-29T12:02:17.215Z,13.70
2019-05-29T12:04:45.697Z,13.80
2019-05-29T12:07:14.350Z,13.80
2019-05-29T12:09:42.875Z,13.90
2019-05-29T12:12:11.698Z,14.00
2019-05-29T12:14:59.119Z,14.10
2019-05-29T12:17:10.545Z,14.30
2019-05-29T12:19:38.982Z,14.40
2019-05-29T12:22:08.063Z,14.30
2019-05-29T12:24:36.523Z,14.20
2019-05-29T12:27:05.211Z,14.40
2019-05-29T12:29:34.422Z,14.40
2019-05-29T12:32:08.182Z,14.20
2019-05-29T12:34:33.557Z,14.10
2019-05-29T12:37:03.742Z,14.10
2019-05-29T12:39:32.426Z,14.20
2019-05-29T12:42:01.807Z,14.20
2019-05-29T12:44:31.295Z,14.20
2019-05-29T12:49:28.451Z,14.30
2019-05-29T12:51:57.674Z,14.40
2019-05-29T12:54:26.550Z,14.50
2019-05-29T12:56:55.801Z,14.70
2019-05-29T12:59:24.459Z,14.70
2019-05-29T13:01:54.321Z,14.80
2019-05-29T13:04:23.042Z,14.70
2019-05-29T13:06:51.602Z,14.70
2019-05-29T13:09:20.019Z,14.70
2019-05-29T13:11:48.443Z,14.70
2019-05-29T13:14:17.067Z,14.50
2019-05-29T13:19:15.398Z,14.30
2019-05-29T13:21:44.778Z,14.40
2019-05-29T13:24:13.210Z,14.60
2019-05-29T13:26:42.126Z,14.70
2019-05-29T13:29:10.627Z,14.80
2019-05-29T13:31:39.615Z,14.80
2019-05-29T13:34:15.164Z,15.00
2019-05-29T13:36:44.124Z,15.00
2019-05-29T13:39:14.855Z,15.30
2019-05-29T13:41:44.150Z,15.60
2019-05-29T13:44:12.730Z,15.90
2019-05-29T13:46:42.097Z,15.90
2019-05-29T13:49:11.075Z,16.00
2019-05-29T13:51:40.637Z,15.90
2019-05-29T13:54:15.358Z,17.70
2019-05-29T13:56:39.429Z,15.80
2019-05-29T13:59:08.425Z,15.70
2019-05-29T14:01:37.064Z,15.40
2019-05-29T14:04:06.733Z,15.30
2019-05-29T14:06:35.545Z,15.10
2019-05-29T14:09:07.599Z,14.80
2019-05-29T14:11:36.457Z,14.70
2019-05-29T14:14:08.531Z,14.70
2019-05-29T14:16:36.378Z,14.40
2019-05-29T14:19:04.936Z,14.30
2019-05-29T14:21:33.591Z,14.30
2019-05-29T14:24:08.723Z,14.20
2019-05-29T14:26:32.886Z,14.20
2019-05-29T14:29:01.440Z,14.10
2019-05-29T14:31:30.525Z,14.00
2019-05-29T14:34:00.872Z,14.00
2019-05-29T14:36:41.317Z,13.90
2019-05-29T14:39:10.057Z,13.90
2019-05-29T14:41:38.641Z,13.90
2019-05-29T14:44:07.907Z,13.90
2019-05-29T14:46:36.535Z,14.00
2019-05-29T14:49:06.285Z,14.00
2019-05-29T14:51:34.911Z,13.90
2019-05-29T14:54:04.606Z,13.90
2019-05-29T14:59:03.008Z,14.00
2019-05-29T15:01:31.751Z,14.10
2019-05-29T15:08:56.687Z,14.10
2019-05-29T15:11:25.119Z,14.10
2019-05-29T15:13:53.781Z,14.10
2019-05-29T15:36:08.559Z,14.30
2019-05-29T15:50:57.688Z,14.40
2019-05-29T15:53:26.100Z,14.30
2019-05-29T15:55:54.610Z,14.20
2019-05-29T15:58:23.024Z,14.20
2019-05-29T16:08:36.214Z,14.40
2019-05-29T16:11:04.722Z,14.40
2019-05-29T16:13:33.139Z,14.50
2019-05-29T16:16:01.567Z,14.60
2019-05-29T16:38:43.070Z,14.90
2019-05-29T16:41:11.622Z,14.90
2019-05-29T16:43:40.022Z,14.80
2019-05-29T17:10:50.841Z,14.60
2019-05-29T17:23:15.231Z,14.90
2019-05-29T17:28:12.081Z,15.00
2019-05-29T17:33:08.896Z,14.90
2019-05-29T17:35:37.423Z,14.80
2019-05-29T17:50:26.804Z,14.70
2019-05-29T17:52:55.259Z,14.60
2019-05-29T17:55:24.871Z,14.60
2019-05-29T18:02:52.624Z,14.60
2019-05-29T18:07:49.482Z,14.60
2019-05-29T18:10:19.347Z,14.40
2019-05-29T18:15:19.510Z,14.30
2019-05-29T18:17:48.169Z,14.30
2019-05-29T18:20:17.902Z,14.30
2019-05-29T18:22:46.520Z,14.30
2019-05-29T18:27:43.465Z,14.20
2019-05-29T18:30:12.653Z,14.10
2019-05-29T18:40:11.463Z,13.60
2019-05-29T18:50:07.772Z,13.30
2019-05-29T19:02:35.289Z,12.80
2019-05-29T19:12:48.516Z,12.50
2019-05-29T19:15:17.356Z,12.50
2019-05-29T19:17:45.769Z,12.40
2019-05-29T19:22:42.640Z,12.20
2019-05-29T19:37:36.788Z,11.20
2019-05-29T19:42:34.345Z,11.20
2019-05-29T19:59:52.199Z,10.60
2019-05-29T20:02:20.618Z,10.60
2019-05-29T20:04:49.041Z,10.50
2019-05-29T20:29:32.432Z,10.10
2019-05-29T20:32:00.893Z,10.10
2019-05-29T20:34:30.716Z,10.10
2019-05-29T20:36:59.521Z,10.20
2019-05-29T20:39:27.953Z,10.20
2019-05-29T20:49:20.967Z,10.00
2019-05-29T20:51:49.389Z,9.90
2019-05-29T20:56:46.150Z,9.80
2019-05-29T21:09:09.202Z,9.80
2019-05-29T21:11:37.666Z,9.80
2019-05-29T21:14:06.256Z,9.70
2019-05-29T21:19:04.023Z,9.50
2019-05-29T21:21:32.455Z,9.30
2019-05-29T21:24:00.869Z,9.10
2019-05-29T22:03:33.292Z,8.10
2019-05-29T22:06:01.709Z,8.10
2019-05-29T22:08:30.116Z,8.10
2019-05-29T22:13:28.265Z,8.10
2019-05-29T22:20:55.766Z,8.20
2019-05-29T22:28:21.586Z,8.10
2019-05-29T22:33:18.114Z,8.00
2019-05-29T22:35:46.525Z,7.90
2019-05-29T23:00:28.521Z,7.50
2019-05-29T23:05:25.326Z,7.60
2019-05-29T23:10:22.677Z,7.80
2019-05-29T23:12:52.806Z,7.80
2019-05-29T23:15:21.410Z,7.90
2019-05-29T23:30:10.936Z,8.10
2019-05-29T23:32:39.357Z,8.00
2019-05-29T23:35:08.021Z,7.90
2019-05-29T23:47:35.768Z,7.30
2019-05-29T23:50:06.985Z,7.30
